createdAt,value
2023-01-23T00:00:49.432Z,0
2023-01-23T00:01:49.661Z,0
2023-01-23T00:02:50.609Z,0
2023-01-23T00:03:50.725Z,0
2023-01-23T00:04:51.430Z,0
2023-01-23T00:05:51.344Z,0
2023-01-23T00:06:52.836Z,0
2023-01-23T00:07:52.449Z,0
2023-01-23T00:08:53.651Z,0
2023-01-23T00:09:54.596Z,0
2023-01-23T00:10:54.553Z,0
2023-01-23T00:11:56.165Z,0
2023-01-23T00:12:56.835Z,0
2023-01-23T00:13:56.944Z,0
2023-01-23T00:14:58.100Z,0
2023-01-23T00:15:58.634Z,0
2023-01-23T00:16:59.193Z,0
2023-01-23T00:17:59.406Z,0
2023-01-23T00:19:00.659Z,0
2023-01-23T00:20:00.693Z,0
2023-01-23T00:21:01.960Z,0
2023-01-23T00:22:02.592Z,0
2023-01-23T00:23:02.986Z,0
2023-01-23T00:24:03.710Z,0
2023-01-23T00:25:04.350Z,0
2023-01-23T00:26:05.558Z,0
2023-01-23T00:27:05.894Z,0
2023-01-23T00:28:06.089Z,0
2023-01-23T00:29:06.400Z,0
2023-01-23T00:30:07.854Z,0
2023-01-23T00:31:08.522Z,0
2023-01-23T00:32:09.448Z,0
2023-01-23T00:33:10.022Z,0
2023-01-23T00:34:10.223Z,0
2023-01-23T00:35:10.525Z,0
2023-01-23T00:36:11.446Z,0
2023-01-23T00:37:12.696Z,0
2023-01-23T00:38:12.727Z,0
2023-01-23T00:39:13.780Z,0
2023-01-23T00:40:13.985Z,0
2023-01-23T00:41:14.595Z,0
2023-01-23T00:42:14.903Z,0
2023-01-23T00:43:15.131Z,0
2023-01-23T00:44:15.985Z,0
2023-01-23T00:45:16.453Z,0
2023-01-23T00:46:16.468Z,0
2023-01-23T00:47:16.847Z,0
2023-01-23T00:48:16.789Z,0
2023-01-23T00:49:17.467Z,0
2023-01-23T00:50:18.995Z,0
2023-01-23T00:51:19.070Z,0
2023-01-23T00:52:19.070Z,0
2023-01-23T00:53:19.899Z,0
2023-01-23T00:54:21.485Z,0
2023-01-23T00:55:21.699Z,0
2023-01-23T00:56:22.921Z,0
2023-01-23T00:57:22.959Z,0
2023-01-23T00:58:24.277Z,0
2023-01-23T00:59:24.638Z,0
2023-01-23T01:00:26.265Z,0
2023-01-23T01:01:26.900Z,0
2023-01-23T01:02:26.941Z,0
2023-01-23T01:03:27.093Z,0
2023-01-23T01:04:28.584Z,0
2023-01-23T01:05:28.366Z,0
2023-01-23T01:06:29.558Z,0
2023-01-23T01:07:30.523Z,0
2023-01-23T01:08:31.160Z,0
2023-01-23T01:09:31.516Z,0
2023-01-23T01:10:32.519Z,0
2023-01-23T01:11:33.427Z,0
2023-01-23T01:12:34.488Z,0
2023-01-23T01:13:34.366Z,0
2023-01-23T01:14:36.004Z,0
2023-01-23T01:15:36.153Z,0
2023-01-23T01:16:36.120Z,0
2023-01-23T01:17:36.773Z,0
2023-01-23T01:18:37.419Z,0
2023-01-23T01:19:38.351Z,0
2023-01-23T01:20:38.954Z,0
2023-01-23T01:21:39.163Z,0
2023-01-23T01:22:39.109Z,0
2023-01-23T01:23:38.973Z,0
2023-01-23T01:24:39.613Z,0
2023-01-23T01:25:40.537Z,0
2023-01-23T01:26:41.737Z,0
2023-01-23T01:27:41.767Z,0
2023-01-23T01:28:42.704Z,0
2023-01-23T01:29:43.434Z,0
2023-01-23T01:30:44.877Z,0
2023-01-23T01:31:45.508Z,0
2023-01-23T01:32:45.806Z,0
2023-01-23T01:33:46.267Z,0
2023-01-23T01:34:45.877Z,0
2023-01-23T01:35:46.899Z,0
2023-01-23T01:36:47.539Z,0
2023-01-23T01:37:48.485Z,0
2023-01-23T01:38:48.691Z,0
2023-01-23T01:39:48.609Z,0
2023-01-23T01:40:49.802Z,0
2023-01-23T01:41:50.009Z,0
2023-01-23T01:42:50.312Z,0
2023-01-23T01:43:50.450Z,0
2023-01-23T01:44:50.749Z,0
2023-01-23T01:45:52.057Z,0
2023-01-23T01:46:52.610Z,0
2023-01-23T01:47:52.856Z,0
2023-01-23T01:48:53.065Z,0
2023-01-23T01:49:53.543Z,0
2023-01-23T01:50:53.766Z,0
2023-01-23T01:51:53.779Z,0
2023-01-23T01:52:55.013Z,0
2023-01-23T01:53:55.402Z,0
2023-01-23T01:54:56.762Z,0
2023-01-23T01:55:56.961Z,0
2023-01-23T01:56:57.511Z,0
2023-01-23T01:57:57.532Z,0
2023-01-23T01:58:58.028Z,0
2023-01-23T01:59:58.053Z,0
2023-01-23T02:00:59.139Z,0
2023-01-23T02:01:59.025Z,0
2023-01-23T02:02:59.322Z,0
2023-01-23T02:03:59.157Z,0
2023-01-23T02:04:59.787Z,0
2023-01-23T02:06:01.392Z,0
2023-01-23T02:07:01.605Z,0
2023-01-23T02:08:01.795Z,0
2023-01-23T02:09:02.280Z,0
2023-01-23T02:10:03.223Z,0
2023-01-23T02:11:03.164Z,0
2023-01-23T02:12:03.381Z,0
2023-01-23T02:13:03.707Z,0
2023-01-23T02:14:03.972Z,0
2023-01-23T02:15:05.002Z,0
2023-01-23T02:16:05.591Z,0
2023-01-23T02:17:05.592Z,0
2023-01-23T02:18:06.150Z,0
2023-01-23T02:19:06.357Z,0
2023-01-23T02:20:06.620Z,0
2023-01-23T02:21:06.739Z,0
2023-01-23T02:22:07.699Z,0
2023-01-23T02:23:08.183Z,0
2023-01-23T02:24:08.327Z,0
2023-01-23T02:25:08.259Z,0
2023-01-23T02:26:08.884Z,0
2023-01-23T02:27:09.517Z,0
2023-01-23T02:28:10.589Z,0
2023-01-23T02:29:11.498Z,0
2023-01-23T02:30:12.820Z,0
2023-01-23T02:31:14.271Z,0
2023-01-23T02:32:13.690Z,0
2023-01-23T02:33:14.883Z,0
2023-01-23T02:34:14.452Z,0
2023-01-23T02:35:15.066Z,0
2023-01-23T02:36:15.820Z,0
2023-01-23T02:37:17.066Z,0
2023-01-23T02:38:17.063Z,0
2023-01-23T02:39:17.967Z,0
2023-01-23T02:40:19.205Z,0
2023-01-23T02:41:19.228Z,0
2023-01-23T02:42:19.564Z,0
2023-01-23T02:43:20.879Z,0
2023-01-23T02:44:20.978Z,0
2023-01-23T02:45:22.309Z,0
2023-01-23T02:46:23.800Z,0
2023-01-23T02:47:23.784Z,0
2023-01-23T02:48:24.431Z,0
2023-01-23T02:49:24.805Z,0
2023-01-23T02:50:26.244Z,0
2023-01-23T02:51:26.336Z,0
2023-01-23T02:52:27.555Z,0
2023-01-23T02:53:27.767Z,0
2023-01-23T02:54:28.175Z,0
2023-01-23T02:55:29.426Z,0
2023-01-23T02:56:29.938Z,0
2023-01-23T02:57:30.137Z,0
2023-01-23T02:58:31.185Z,0
2023-01-23T02:59:31.415Z,0
2023-01-23T03:00:32.819Z,0
2023-01-23T03:01:33.115Z,0
2023-01-23T03:02:32.953Z,0
2023-01-23T03:03:33.930Z,0
2023-01-23T03:04:34.782Z,0
2023-01-23T03:05:35.691Z,0
2023-01-23T03:06:36.442Z,0
2023-01-23T03:07:37.917Z,0
2023-01-23T03:08:37.862Z,0
2023-01-23T03:09:38.528Z,0
2023-01-23T03:10:39.439Z,0
2023-01-23T03:11:40.372Z,0
2023-01-23T03:12:41.288Z,0
2023-01-23T03:13:41.639Z,0
2023-01-23T03:14:42.055Z,0
2023-01-23T03:15:43.107Z,0
2023-01-23T03:16:44.658Z,0
2023-01-23T03:17:43.798Z,0
2023-01-23T03:19:00.683Z,0
2023-01-23T03:19:44.672Z,0
2023-01-23T03:20:44.892Z,0
2023-01-23T03:21:45.257Z,0
2023-01-23T03:22:45.463Z,0
2023-01-23T03:23:46.393Z,0
2023-01-23T03:24:46.827Z,0
2023-01-23T03:25:46.772Z,0
2023-01-23T03:26:46.968Z,0
2023-01-23T03:27:47.637Z,0
2023-01-23T03:28:48.381Z,0
2023-01-23T03:29:49.297Z,0
2023-01-23T03:30:50.614Z,0
2023-01-23T03:31:51.306Z,0
2023-01-23T03:32:51.623Z,0
2023-01-23T03:33:52.107Z,0
2023-01-23T03:34:52.809Z,0
2023-01-23T03:35:52.733Z,0
2023-01-23T03:36:53.763Z,0
2023-01-23T03:37:54.038Z,0
2023-01-23T03:38:55.235Z,0
2023-01-23T03:39:55.443Z,0
2023-01-23T03:40:55.971Z,0
2023-01-23T03:41:55.889Z,0
2023-01-23T03:42:56.796Z,0
2023-01-23T03:43:57.107Z,0
2023-01-23T03:44:57.345Z,0
2023-01-23T03:45:59.055Z,0
2023-01-23T03:46:59.224Z,0
2023-01-23T03:47:59.434Z,0
2023-01-23T03:48:59.793Z,0
2023-01-23T03:50:01.033Z,0
2023-01-23T03:51:01.464Z,0
2023-01-23T03:52:01.647Z,0
2023-01-23T03:53:02.294Z,0
2023-01-23T03:54:03.214Z,0
2023-01-23T03:55:04.164Z,0
2023-01-23T03:56:05.092Z,0
2023-01-23T03:57:05.004Z,0
2023-01-23T03:58:05.911Z,0
2023-01-23T03:59:06.975Z,0
2023-01-23T04:00:07.916Z,0
2023-01-23T04:01:08.912Z,0
2023-01-23T04:02:10.128Z,0
2023-01-23T04:03:10.330Z,0
2023-01-23T04:04:10.987Z,0
2023-01-23T04:05:11.690Z,0
2023-01-23T04:06:12.603Z,0
2023-01-23T04:07:13.044Z,0
2023-01-23T04:08:13.953Z,0
2023-01-23T04:09:13.909Z,0
2023-01-23T04:10:19.179Z,0
2023-01-23T04:11:15.257Z,0
2023-01-23T04:12:16.509Z,0
2023-01-23T04:13:16.465Z,0
2023-01-23T04:14:17.858Z,0
2023-01-23T04:15:18.692Z,0
2023-01-23T04:16:20.073Z,0
2023-01-23T04:17:20.049Z,0
2023-01-23T04:18:19.971Z,0
2023-01-23T04:19:20.907Z,0
2023-01-23T04:20:21.628Z,0
2023-01-23T04:21:21.732Z,0
2023-01-23T04:22:22.796Z,0
2023-01-23T04:23:23.420Z,0
2023-01-23T04:24:24.054Z,0
2023-01-23T04:25:24.583Z,0
2023-01-23T04:26:25.837Z,0
2023-01-23T04:27:26.761Z,0
2023-01-23T04:28:27.673Z,0
2023-01-23T04:29:28.704Z,0
2023-01-23T04:30:29.165Z,0
2023-01-23T04:31:30.571Z,0
2023-01-23T04:32:30.645Z,0
2023-01-23T04:33:30.884Z,0
2023-01-23T04:34:31.102Z,0
2023-01-23T04:35:30.937Z,0
2023-01-23T04:36:31.861Z,0
2023-01-23T04:37:32.192Z,0
2023-01-23T04:38:33.419Z,0
2023-01-23T04:39:32.748Z,0
2023-01-23T04:40:33.929Z,0
2023-01-23T04:41:34.154Z,0
2023-01-23T04:42:34.823Z,0
2023-01-23T04:43:34.707Z,0
2023-01-23T04:44:36.038Z,0
2023-01-23T04:45:36.448Z,0
2023-01-23T04:46:37.573Z,0
2023-01-23T04:47:38.044Z,0
2023-01-23T04:48:38.566Z,0
2023-01-23T04:49:38.647Z,0
2023-01-23T04:50:39.276Z,0
2023-01-23T04:51:40.273Z,0
2023-01-23T04:52:40.015Z,0
2023-01-23T04:53:40.651Z,0
2023-01-23T04:54:41.581Z,0
2023-01-23T04:55:41.755Z,0
2023-01-23T04:56:42.983Z,0
2023-01-23T04:57:43.198Z,0
2023-01-23T04:58:43.137Z,0
2023-01-23T04:59:44.773Z,0
2023-01-23T05:00:44.698Z,0
2023-01-23T05:01:45.929Z,0
2023-01-23T05:02:47.445Z,0
2023-01-23T05:03:46.669Z,0
2023-01-23T05:04:47.648Z,0
2023-01-23T05:05:48.216Z,0
2023-01-23T05:06:49.135Z,0
2023-01-23T05:07:50.740Z,0
2023-01-23T05:08:52.354Z,0
2023-01-23T05:09:51.453Z,0
2023-01-23T05:10:52.458Z,0
2023-01-23T05:11:52.108Z,0
2023-01-23T05:12:53.332Z,0
2023-01-23T05:13:53.691Z,0
2023-01-23T05:14:54.741Z,0
2023-01-23T05:15:55.028Z,0
2023-01-23T05:16:55.853Z,0
2023-01-23T05:17:57.347Z,0
2023-01-23T05:18:57.860Z,0
2023-01-23T05:19:58.358Z,0
2023-01-23T05:20:58.019Z,0
2023-01-23T05:21:58.946Z,0
2023-01-23T05:23:02.797Z,0
2023-01-23T05:24:01.007Z,0
2023-01-23T05:25:00.919Z,0
2023-01-23T05:26:01.314Z,0
2023-01-23T05:27:01.615Z,0
2023-01-23T05:28:02.280Z,0
2023-01-23T05:29:02.951Z,0
2023-01-23T05:30:03.572Z,0
2023-01-23T05:31:04.188Z,0
2023-01-23T05:32:04.398Z,0
2023-01-23T05:33:04.562Z,0
2023-01-23T05:34:04.815Z,0
2023-01-23T05:35:05.314Z,0
2023-01-23T05:36:05.506Z,0
2023-01-23T05:37:06.703Z,0
2023-01-23T05:38:07.125Z,0
2023-01-23T05:39:08.057Z,0
2023-01-23T05:40:08.002Z,0
2023-01-23T05:41:09.235Z,0
2023-01-23T05:42:08.865Z,0
2023-01-23T05:43:09.794Z,0
2023-01-23T05:44:10.781Z,0
2023-01-23T05:45:11.382Z,0
2023-01-23T05:46:11.331Z,0
2023-01-23T05:47:12.733Z,0
2023-01-23T05:48:13.242Z,0
2023-01-23T05:49:13.490Z,0
2023-01-23T05:50:13.725Z,0
2023-01-23T05:51:14.216Z,0
2023-01-23T05:52:14.528Z,0
2023-01-23T05:53:15.583Z,0
2023-01-23T05:54:15.793Z,0
2023-01-23T05:55:16.492Z,0
2023-01-23T05:56:17.905Z,0
2023-01-23T05:57:18.117Z,0
2023-01-23T05:58:21.862Z,0
2023-01-23T05:59:20.084Z,0
2023-01-23T06:00:20.737Z,0
2023-01-23T06:01:21.321Z,0
2023-01-23T06:02:21.614Z,0
2023-01-23T06:03:21.663Z,0
2023-01-23T06:04:22.283Z,0
2023-01-23T06:05:22.474Z,0
2023-01-23T06:06:22.882Z,0
2023-01-23T06:07:24.067Z,0
2023-01-23T06:08:24.683Z,0
2023-01-23T06:09:25.180Z,0
2023-01-23T06:10:26.231Z,0
2023-01-23T06:11:26.435Z,0
2023-01-23T06:12:27.079Z,0
2023-01-23T06:13:27.714Z,0
2023-01-23T06:14:28.068Z,0
2023-01-23T06:15:29.407Z,0
2023-01-23T06:16:28.894Z,0
2023-01-23T06:17:30.207Z,0
2023-01-23T06:18:31.709Z,0
2023-01-23T06:19:32.220Z,0
2023-01-23T06:20:33.167Z,0
2023-01-23T06:21:32.364Z,0
2023-01-23T06:22:36.021Z,0
2023-01-23T06:23:33.051Z,0
2023-01-23T06:24:33.974Z,0
2023-01-23T06:25:34.935Z,0
2023-01-23T06:26:35.375Z,0
2023-01-23T06:27:35.588Z,0
2023-01-23T06:28:35.524Z,0
2023-01-23T06:29:37.021Z,0
2023-01-23T06:30:37.767Z,4
2023-01-23T06:31:38.885Z,4
2023-01-23T06:32:38.003Z,4
2023-01-23T06:33:39.473Z,4
2023-01-23T06:34:39.136Z,4
2023-01-23T06:35:40.175Z,4
2023-01-23T06:36:40.734Z,4
2023-01-23T06:37:41.661Z,8
2023-01-23T06:38:41.723Z,4
2023-01-23T06:39:42.655Z,8
2023-01-23T06:40:43.290Z,8
2023-01-23T06:41:44.225Z,12
2023-01-23T06:42:45.437Z,12
2023-01-23T06:43:46.481Z,12
2023-01-23T06:44:47.683Z,16
2023-01-23T06:45:48.450Z,16
2023-01-23T06:46:48.660Z,16
2023-01-23T06:47:49.743Z,20
2023-01-23T06:48:50.177Z,24
2023-01-23T06:49:50.415Z,28
2023-01-23T06:50:50.772Z,28
2023-01-23T06:51:50.780Z,28
2023-01-23T06:52:50.977Z,32
2023-01-23T06:53:51.016Z,36
2023-01-23T06:54:52.504Z,40
2023-01-23T06:55:52.436Z,40
2023-01-23T06:56:53.444Z,48
2023-01-23T06:57:53.642Z,52
2023-01-23T06:58:54.582Z,56
2023-01-23T06:59:55.508Z,60
2023-01-23T07:00:56.147Z,64
2023-01-23T07:01:56.349Z,68
2023-01-23T07:02:57.713Z,76
2023-01-23T07:03:57.638Z,80
2023-01-23T07:04:58.566Z,88
2023-01-23T07:05:59.509Z,92
2023-01-23T07:06:59.654Z,100
2023-01-23T07:08:00.313Z,104
2023-01-23T07:09:01.370Z,112
2023-01-23T07:10:02.614Z,120
2023-01-23T07:11:02.831Z,124
2023-01-23T07:12:03.476Z,132
2023-01-23T07:13:04.693Z,132
2023-01-23T07:14:04.319Z,136
2023-01-23T07:15:05.234Z,144
2023-01-23T07:16:06.046Z,156
2023-01-23T07:17:06.281Z,168
2023-01-23T07:18:06.294Z,176
2023-01-23T07:19:07.785Z,184
2023-01-23T07:20:08.046Z,192
2023-01-23T07:21:07.981Z,196
2023-01-23T07:22:07.627Z,204
2023-01-23T07:23:10.415Z,208
2023-01-23T07:24:08.741Z,212
2023-01-23T07:25:08.960Z,216
2023-01-23T07:26:09.599Z,224
2023-01-23T07:27:10.735Z,232
2023-01-23T07:28:11.971Z,240
2023-01-23T07:29:12.192Z,252
2023-01-23T07:30:12.428Z,268
2023-01-23T07:31:13.907Z,276
2023-01-23T07:32:17.016Z,296
2023-01-23T07:33:14.760Z,312
2023-01-23T07:34:15.243Z,328
2023-01-23T07:35:15.725Z,344
2023-01-23T07:36:15.972Z,356
2023-01-23T07:37:16.174Z,372
2023-01-23T07:38:17.095Z,388
2023-01-23T07:39:18.466Z,396
2023-01-23T07:40:19.166Z,408
2023-01-23T07:41:19.335Z,424
2023-01-23T07:42:20.549Z,432
2023-01-23T07:43:20.519Z,444
2023-01-23T07:44:21.166Z,448
2023-01-23T07:45:22.430Z,460
2023-01-23T07:46:22.843Z,484
2023-01-23T07:47:23.464Z,500
2023-01-23T07:48:23.536Z,512
2023-01-23T07:49:25.289Z,528
2023-01-23T07:50:26.670Z,524
2023-01-23T07:51:26.371Z,524
2023-01-23T07:52:26.617Z,524
2023-01-23T07:53:27.267Z,520
2023-01-23T07:54:28.072Z,508
2023-01-23T07:55:28.283Z,500
2023-01-23T07:56:28.796Z,492
2023-01-23T07:57:29.219Z,472
2023-01-23T07:58:29.876Z,460
2023-01-23T07:59:30.805Z,460
2023-01-23T08:00:36.741Z,464
2023-01-23T08:01:32.548Z,460
2023-01-23T08:02:32.495Z,460
2023-01-23T08:03:34.391Z,464
2023-01-23T08:04:34.673Z,476
2023-01-23T08:05:34.644Z,484
2023-01-23T08:06:36.007Z,488
2023-01-23T08:07:36.176Z,492
2023-01-23T08:08:37.182Z,492
2023-01-23T08:09:37.801Z,500
2023-01-23T08:10:38.067Z,516
2023-01-23T08:11:40.124Z,552
2023-01-23T08:12:39.649Z,572
2023-01-23T08:13:39.881Z,576
2023-01-23T08:14:40.379Z,572
2023-01-23T08:15:40.030Z,564
2023-01-23T08:16:41.368Z,572
2023-01-23T08:17:41.816Z,584
2023-01-23T08:18:42.605Z,596
2023-01-23T08:19:43.336Z,600
2023-01-23T08:20:43.824Z,600
2023-01-23T08:21:44.066Z,608
2023-01-23T08:22:44.700Z,632
2023-01-23T08:23:45.459Z,664
2023-01-23T08:24:45.781Z,684
2023-01-23T08:25:45.988Z,696
2023-01-23T08:26:46.640Z,704
2023-01-23T08:27:46.586Z,700
2023-01-23T08:28:47.816Z,676
2023-01-23T08:29:49.045Z,656
2023-01-23T08:30:49.695Z,648
2023-01-23T08:31:50.522Z,636
2023-01-23T08:32:50.507Z,628
2023-01-23T08:33:51.828Z,616
2023-01-23T08:34:52.591Z,612
2023-01-23T08:35:53.087Z,608
2023-01-23T08:36:53.033Z,608
2023-01-23T08:37:53.634Z,608
2023-01-23T08:38:54.567Z,608
2023-01-23T08:39:55.587Z,604
2023-01-23T08:40:56.155Z,592
2023-01-23T08:41:55.949Z,588
2023-01-23T08:42:57.481Z,580
2023-01-23T08:43:58.037Z,584
2023-01-23T08:44:58.290Z,584
2023-01-23T08:45:59.668Z,592
2023-01-23T08:46:59.911Z,612
2023-01-23T08:48:00.148Z,644
2023-01-23T08:49:00.508Z,676
2023-01-23T08:50:00.688Z,692
2023-01-23T08:51:01.082Z,724
2023-01-23T08:52:00.862Z,768
2023-01-23T08:53:02.123Z,812
2023-01-23T08:54:02.098Z,812
2023-01-23T08:55:03.404Z,772
2023-01-23T08:56:03.630Z,760
2023-01-23T08:57:03.554Z,820
2023-01-23T08:58:03.836Z,856
2023-01-23T08:59:05.215Z,852
2023-01-23T09:00:04.899Z,840
2023-01-23T09:01:06.367Z,832
2023-01-23T09:02:07.313Z,924
2023-01-23T09:03:08.929Z,1096
2023-01-23T09:04:07.910Z,1252
2023-01-23T09:05:08.449Z,1448
2023-01-23T09:06:08.708Z,1524
2023-01-23T09:07:08.951Z,1520
2023-01-23T09:08:10.814Z,1520
2023-01-23T09:09:09.826Z,1496
2023-01-23T09:10:09.900Z,1460
2023-01-23T09:11:10.448Z,1472
2023-01-23T09:12:10.954Z,1480
2023-01-23T09:13:10.639Z,1448
2023-01-23T09:14:11.923Z,1348
2023-01-23T09:15:12.470Z,1176
2023-01-23T09:16:13.280Z,1148
2023-01-23T09:17:14.031Z,1192
2023-01-23T09:18:13.779Z,1260
2023-01-23T09:19:15.397Z,1304
2023-01-23T09:20:15.868Z,1288
2023-01-23T09:21:19.262Z,1300
2023-01-23T09:22:17.755Z,1296
2023-01-23T09:23:17.734Z,1256
2023-01-23T09:24:18.399Z,1172
2023-01-23T09:25:19.537Z,1128
2023-01-23T09:26:20.125Z,1164
2023-01-23T09:27:20.084Z,1180
2023-01-23T09:28:20.521Z,1188
2023-01-23T09:29:20.717Z,1132
2023-01-23T09:30:21.213Z,1080
2023-01-23T09:31:21.455Z,1008
2023-01-23T09:32:22.123Z,968
2023-01-23T09:33:22.060Z,928
2023-01-23T09:34:23.505Z,888
2023-01-23T09:35:23.672Z,868
2023-01-23T09:36:37.681Z,828
2023-01-23T09:37:24.215Z,804
2023-01-23T09:38:24.464Z,768
2023-01-23T09:39:24.680Z,752
2023-01-23T09:40:27.056Z,752
2023-01-23T09:41:26.426Z,768
2023-01-23T09:42:27.387Z,784
2023-01-23T09:43:28.361Z,788
2023-01-23T09:44:28.775Z,792
2023-01-23T09:45:29.708Z,812
2023-01-23T09:46:31.295Z,864
2023-01-23T09:47:31.825Z,928
2023-01-23T09:48:31.746Z,952
2023-01-23T09:49:33.097Z,916
2023-01-23T09:50:34.731Z,892
2023-01-23T09:51:34.227Z,888
2023-01-23T09:52:34.924Z,884
2023-01-23T09:53:34.876Z,876
2023-01-23T09:54:35.407Z,880
2023-01-23T09:55:35.780Z,876
2023-01-23T09:56:36.478Z,852
2023-01-23T09:57:37.741Z,832
2023-01-23T09:58:37.592Z,832
2023-01-23T09:59:47.263Z,848
2023-01-23T10:00:38.909Z,872
2023-01-23T10:01:39.407Z,876
2023-01-23T10:02:40.292Z,912
2023-01-23T10:03:41.345Z,956
2023-01-23T10:04:40.681Z,976
2023-01-23T10:05:41.867Z,996
2023-01-23T10:06:42.149Z,1008
2023-01-23T10:07:42.189Z,1028
2023-01-23T10:08:42.889Z,1048
2023-01-23T10:09:43.128Z,1052
2023-01-23T10:10:43.872Z,1072
2023-01-23T10:11:44.107Z,1092
2023-01-23T10:12:44.349Z,1112
2023-01-23T10:13:44.572Z,1084
2023-01-23T10:14:47.315Z,1044
2023-01-23T10:15:45.522Z,1040
2023-01-23T10:17:00.657Z,1040
2023-01-23T10:17:46.026Z,1064
2023-01-23T10:18:46.789Z,1068
2023-01-23T10:19:47.419Z,1088
2023-01-23T10:20:48.275Z,1124
2023-01-23T10:21:48.481Z,1120
2023-01-23T10:22:48.713Z,1084
2023-01-23T10:23:49.660Z,1080
2023-01-23T10:27:53.546Z,1148
2023-01-23T10:28:53.893Z,1156
2023-01-23T10:29:54.540Z,1128
2023-01-23T10:30:56.296Z,1104
2023-01-23T10:31:56.825Z,1080
2023-01-23T10:32:57.481Z,1060
2023-01-23T10:33:57.975Z,1068
2023-01-23T10:34:58.360Z,1084
2023-01-23T10:35:58.592Z,1092
2023-01-23T10:37:05.924Z,1064
2023-01-23T10:37:59.852Z,1048
2023-01-23T10:39:00.291Z,1060
2023-01-23T10:40:00.988Z,1108
2023-01-23T10:41:01.918Z,1160
2023-01-23T10:42:08.901Z,1172
2023-01-23T10:43:03.416Z,1144
2023-01-23T10:44:03.200Z,1116
2023-01-23T10:45:04.724Z,1064
2023-01-23T10:46:05.347Z,1028
2023-01-23T10:47:05.517Z,1024
2023-01-23T10:48:16.006Z,1032
2023-01-23T10:49:06.356Z,1040
2023-01-23T10:50:07.991Z,1052
2023-01-23T10:51:08.957Z,1072
2023-01-23T10:52:09.237Z,1084
2023-01-23T10:53:09.445Z,1108
2023-01-23T10:54:29.869Z,1096
2023-01-23T10:55:10.689Z,1060
2023-01-23T10:56:11.909Z,1024
2023-01-23T10:57:12.458Z,1012
2023-01-23T10:58:12.728Z,1016
2023-01-23T10:59:12.770Z,1032
2023-01-23T11:00:13.853Z,1040
2023-01-23T11:01:15.125Z,1036
2023-01-23T11:02:15.284Z,1024
2023-01-23T11:03:15.712Z,1028
2023-01-23T11:04:15.817Z,1056
2023-01-23T11:05:16.135Z,1112
2023-01-23T11:06:16.440Z,1192
2023-01-23T11:07:16.603Z,1228
2023-01-23T11:08:17.115Z,1208
2023-01-23T11:09:17.694Z,1180
2023-01-23T11:10:18.209Z,1168
2023-01-23T11:11:18.143Z,1172
2023-01-23T11:12:18.717Z,1172
2023-01-23T11:13:18.680Z,1152
2023-01-23T11:14:20.294Z,1148
2023-01-23T11:15:20.800Z,1184
2023-01-23T11:16:20.865Z,1212
2023-01-23T11:17:20.567Z,1260
2023-01-23T11:18:24.212Z,1312
2023-01-23T11:19:22.379Z,1336
2023-01-23T11:20:22.995Z,1372
2023-01-23T11:21:23.802Z,1364
2023-01-23T11:22:24.292Z,1404
2023-01-23T11:23:24.549Z,1448
2023-01-23T11:24:44.083Z,1484
2023-01-23T11:25:25.910Z,1524
2023-01-23T11:26:25.127Z,1548
2023-01-23T11:27:26.252Z,1532
2023-01-23T11:28:26.459Z,1516
2023-01-23T11:29:27.276Z,1504
2023-01-23T11:30:28.499Z,1456
2023-01-23T11:31:28.807Z,1412
2023-01-23T11:32:30.084Z,1364
2023-01-23T11:33:30.007Z,1344
2023-01-23T11:34:30.513Z,1348
2023-01-23T11:35:30.889Z,1340
2023-01-23T11:36:31.358Z,1344
2023-01-23T11:37:31.576Z,1352
2023-01-23T11:38:53.380Z,1300
2023-01-23T11:39:41.250Z,1256
2023-01-23T11:40:41.758Z,1268
2023-01-23T11:41:41.716Z,1352
2023-01-23T11:42:43.078Z,1392
2023-01-23T11:43:43.608Z,1352
2023-01-23T11:44:57.074Z,1404
2023-01-23T11:45:44.551Z,1500
2023-01-23T11:46:45.437Z,1532
2023-01-23T11:47:45.655Z,1504
2023-01-23T11:48:47.063Z,1536
2023-01-23T11:49:47.102Z,1576
2023-01-23T11:51:02.033Z,1508
2023-01-23T11:51:47.689Z,1480
2023-01-23T11:52:47.608Z,1456
2023-01-23T11:53:54.712Z,1472
2023-01-23T11:54:48.749Z,1496
2023-01-23T11:55:49.759Z,1512
2023-01-23T11:56:50.708Z,1540
2023-01-23T11:57:50.912Z,1588
2023-01-23T11:59:01.146Z,1644
2023-01-23T11:59:52.835Z,1688
2023-01-23T12:00:53.779Z,1708
2023-01-23T12:02:09.571Z,1740
2023-01-23T12:02:55.350Z,1808
2023-01-23T12:03:57.072Z,1880
2023-01-23T12:04:57.597Z,1932
2023-01-23T12:06:10.383Z,1988
2023-01-23T12:06:58.596Z,2000
2023-01-23T12:07:58.520Z,2016
2023-01-23T12:08:59.456Z,2064
2023-01-23T12:09:59.597Z,2060
2023-01-23T12:10:59.513Z,2040
2023-01-23T12:12:04.061Z,2044
2023-01-23T12:13:01.340Z,2088
2023-01-23T12:14:02.302Z,2112
2023-01-23T12:15:02.858Z,2096
2023-01-23T12:16:03.478Z,2144
2023-01-23T12:17:04.209Z,2156
2023-01-23T12:18:04.965Z,2060
2023-01-23T12:19:05.337Z,2056
2023-01-23T12:20:05.222Z,2028
2023-01-23T12:21:06.745Z,1924
2023-01-23T12:22:07.078Z,1852
2023-01-23T12:23:07.386Z,1876
2023-01-23T12:24:07.755Z,1824
2023-01-23T12:25:08.004Z,1836
2023-01-23T12:26:08.221Z,1812
2023-01-23T12:27:08.589Z,1808
2023-01-23T12:28:09.526Z,1804
2023-01-23T12:29:10.394Z,1840
2023-01-23T12:30:10.902Z,1864
2023-01-23T12:31:11.499Z,1880
2023-01-23T12:32:12.701Z,1872
2023-01-23T12:33:12.152Z,1856
2023-01-23T12:34:12.218Z,1872
2023-01-23T12:35:13.192Z,1932
2023-01-23T12:36:13.384Z,2028
2023-01-23T12:37:36.922Z,2080
2023-01-23T12:38:14.144Z,2088
2023-01-23T12:39:14.082Z,2092
2023-01-23T12:40:24.759Z,2112
2023-01-23T12:41:15.394Z,2120
2023-01-23T12:42:16.324Z,2160
2023-01-23T12:43:16.269Z,2160
2023-01-23T12:44:16.853Z,2060
2023-01-23T12:45:17.094Z,1948
2023-01-23T12:46:17.014Z,1912
2023-01-23T12:47:18.192Z,1916
2023-01-23T12:48:19.419Z,1936
2023-01-23T12:49:20.043Z,1944
2023-01-23T12:50:20.564Z,1972
2023-01-23T12:51:21.260Z,2016
2023-01-23T12:52:21.870Z,2260
2023-01-23T12:53:22.385Z,2388
2023-01-23T12:54:23.214Z,2268
2023-01-23T12:55:23.635Z,2356
2023-01-23T12:56:24.008Z,2632
2023-01-23T12:57:27.321Z,2620
2023-01-23T12:58:25.005Z,2404
2023-01-23T12:59:25.659Z,2236
2023-01-23T13:00:27.012Z,2252
2023-01-23T13:01:26.670Z,2172
2023-01-23T13:02:27.023Z,2156
2023-01-23T13:03:46.180Z,2228
2023-01-23T13:04:27.751Z,2224
2023-01-23T13:05:27.742Z,2204
2023-01-23T13:06:28.723Z,2292
2023-01-23T13:07:29.367Z,2188
2023-01-23T13:08:38.054Z,2116
2023-01-23T13:09:31.497Z,2112
2023-01-23T13:10:32.628Z,2260
2023-01-23T13:11:32.832Z,2440
2023-01-23T13:12:33.637Z,2636
2023-01-23T13:13:34.220Z,2828
2023-01-23T13:15:13.721Z,1868
2023-01-23T13:15:52.528Z,1596
2023-01-23T13:16:47.019Z,1416
2023-01-23T13:17:47.671Z,1308
2023-01-23T13:18:48.162Z,1236
2023-01-23T13:19:48.543Z,1172
2023-01-23T13:20:49.094Z,1116
2023-01-23T13:21:49.266Z,1088
2023-01-23T13:22:50.482Z,1052
2023-01-23T13:23:51.126Z,1024
2023-01-23T13:24:51.042Z,1144
2023-01-23T13:25:51.714Z,1344
2023-01-23T13:26:53.004Z,1300
2023-01-23T13:27:53.291Z,1228
2023-01-23T13:28:57.473Z,1140
2023-01-23T13:29:54.761Z,1100
2023-01-23T13:30:55.401Z,1196
2023-01-23T13:31:55.862Z,1416
2023-01-23T13:32:57.451Z,1440
2023-01-23T13:34:20.040Z,1052
2023-01-23T13:34:58.310Z,968
2023-01-23T13:35:58.606Z,848
2023-01-23T13:36:59.641Z,840
2023-01-23T13:38:00.581Z,924
2023-01-23T13:39:01.997Z,1160
2023-01-23T13:40:12.906Z,1280
2023-01-23T13:41:01.621Z,1092
2023-01-23T13:42:02.150Z,1032
2023-01-23T13:43:02.275Z,1084
2023-01-23T13:44:02.955Z,1128
2023-01-23T13:45:03.163Z,1132
2023-01-23T13:46:03.578Z,1196
2023-01-23T13:47:03.790Z,1228
2023-01-23T13:48:03.910Z,1248
2023-01-23T13:49:04.465Z,1268
2023-01-23T13:50:04.516Z,1256
2023-01-23T13:51:04.938Z,1196
2023-01-23T13:52:05.901Z,1068
2023-01-23T13:53:06.292Z,912
2023-01-23T13:54:07.053Z,832
2023-01-23T13:55:07.612Z,788
2023-01-23T13:56:07.544Z,732
2023-01-23T13:57:08.758Z,652
2023-01-23T13:58:09.576Z,600
2023-01-23T13:59:09.870Z,576
2023-01-23T14:00:11.078Z,572
2023-01-23T14:01:11.292Z,612
2023-01-23T14:02:12.218Z,652
2023-01-23T14:03:12.762Z,664
2023-01-23T14:04:13.278Z,664
2023-01-23T14:05:13.688Z,676
2023-01-23T14:06:13.630Z,652
2023-01-23T14:07:14.570Z,660
2023-01-23T14:08:15.494Z,768
2023-01-23T14:09:16.353Z,724
2023-01-23T14:10:16.692Z,624
2023-01-23T14:11:17.259Z,596
2023-01-23T14:12:17.524Z,572
2023-01-23T14:13:18.019Z,536
2023-01-23T14:14:17.940Z,504
2023-01-23T14:15:19.167Z,496
2023-01-23T14:16:19.103Z,528
2023-01-23T14:17:19.787Z,484